メインページ
METAR-TAF:

METAR-TAF

空港 :

ブラジリア, ブラジリア連邦直轄区, ブラジル

プレジデント・ジュセリノ・クビシェッキ国際空港

緯度: 15-52S, 経度: 047-56W, 海抜: 1061m

現時点の気象観測

当レポートは33分前の15:00(UTC)に作成
南東の風 21kt
気温 22°C
湿度 43%
気圧 1025 hPa
視程10km以上
高度3000ftの雲はほとんどない

METAR: SBBR 251500Z 14021KT 9999 FEW030 22/09 Q1025

時間: 12:33 (15:33 UTC)

予報

予報は25日の 12時(UTC)から 26日の 12時(UTC)まで有効
南東の風 7kt
視程: 9000m
25日の 13時(UTC)から 25日の 15時(UTC)まで徐々に
の風 10kt
視程10km以上
高度4000ftの雲は散在している
25日の 19時(UTC)から 25日の 20時(UTC)まで徐々に
南/南東の風 6kt
高度4500ftの雲はほとんどない
26日の 00時(UTC)から 26日の 01時(UTC)まで徐々に
東/南東の風 4kt
視程10km以上
1,500メートル以下は雲なし、積乱雲なし
26日の 03時(UTC)から 26日の 05時(UTC)まで徐々に
南東の風 5kt

TAF: SBBR 2512/2612 13007KT 9000 NSC TX24/2517Z TN14/2607Z BECMG 2513/2515 10010KT 9999 SCT040 BECMG 2519/2520 15006KT FEW045 BECMG 2600/2601 12004KT CAVOK BECMG 2603/2605 13005KT RMK PEW

4,000以上の空港の気象観測と天気予報(METAR報とTAF報)

利用可能な観測所は地図上に黄色い丸と赤い丸で示す。

丸の上にカーソルを重ねると観測所名を参照できる。

次にクリックすると気象観測と天気予報を参照できる。

マップの切り替え:黒色「×」印の緑ボタンをクリックして拡大、「-」印の緑ボタンをクリックして縮小、緑色の三角印をクリックして隣りの地図に切り替え


METAR-TAF: